createdAt,value
2022-10-17T00:00:31.037Z,19.70
2022-10-17T00:02:58.136Z,22.83
2022-10-17T00:05:25.188Z,21.30
2022-10-17T00:07:53.103Z,19.88
2022-10-17T00:10:20.526Z,18.55
2022-10-17T00:12:47.345Z,19.65
2022-10-17T00:15:18.781Z,18.55
2022-10-17T00:17:45.799Z,18.30
2022-10-17T00:20:13.093Z,20.17
2022-10-17T00:22:39.802Z,22.27
2022-10-17T00:25:06.985Z,22.10
2022-10-17T00:27:38.124Z,19.42
2022-10-17T00:30:07.325Z,15.15
2022-10-17T00:32:34.021Z,16.65
2022-10-17T00:35:00.615Z,16.58
2022-10-17T00:37:27.421Z,16.83
2022-10-17T00:39:54.279Z,17.35
2022-10-17T00:42:21.121Z,17.33
2022-10-17T00:45:03.377Z,16.65
2022-10-17T00:47:31.150Z,15.00
2022-10-17T00:49:59.116Z,13.65
2022-10-17T00:52:29.180Z,13.07
2022-10-17T00:55:01.465Z,12.90
2022-10-17T00:57:31.668Z,14.02
2022-10-17T01:00:00.618Z,14.18
2022-10-17T01:02:27.669Z,14.77
2022-10-17T01:04:56.946Z,16.60
2022-10-17T01:07:23.713Z,26.98
2022-10-17T01:09:50.690Z,27.50
2022-10-17T01:12:29.488Z,22.17
2022-10-17T01:15:55.231Z,24.15
2022-10-17T01:18:42.656Z,22.13
2022-10-17T01:21:34.779Z,23.58
2022-10-17T01:25:08.883Z,22.77
2022-10-17T01:30:59.801Z,23.80
2022-10-17T01:33:51.331Z,21.52
2022-10-17T01:36:43.414Z,22.83
2022-10-17T01:39:46.990Z,19.42
2022-10-17T01:42:33.599Z,19.10
2022-10-17T01:45:12.095Z,17.40
2022-10-17T01:50:37.374Z,15.10
2022-10-17T01:53:10.916Z,14.18
2022-10-17T01:55:41.557Z,13.60
2022-10-17T01:58:13.519Z,14.10
2022-10-17T02:00:43.078Z,12.32
2022-10-17T02:03:14.202Z,12.75
2022-10-17T02:05:42.775Z,9.93
2022-10-17T02:08:09.462Z,10.85
2022-10-17T02:10:45.241Z,8.57
2022-10-17T02:13:56.543Z,9.57
2022-10-17T02:16:45.074Z,8.75
2022-10-17T02:19:18.019Z,9.90
2022-10-17T02:22:15.047Z,9.35
2022-10-17T02:25:14.010Z,9.73
2022-10-17T02:27:59.155Z,9.52
2022-10-17T02:30:56.800Z,9.55
2022-10-17T02:33:37.699Z,8.77
2022-10-17T02:36:10.971Z,7.43
2022-10-17T02:38:39.390Z,6.65
2022-10-17T02:41:08.660Z,6.95
2022-10-17T02:43:37.114Z,6.30
2022-10-17T02:46:04.740Z,6.30
2022-10-17T02:48:40.590Z,7.70
2022-10-17T02:51:30.949Z,6.82
2022-10-17T02:54:28.312Z,6.32
2022-10-17T02:57:09.013Z,6.75
2022-10-17T02:59:37.770Z,7.22
2022-10-17T03:02:05.942Z,6.07
2022-10-17T03:04:33.605Z,5.00
2022-10-17T03:07:00.182Z,5.53
2022-10-17T03:09:26.751Z,5.40
2022-10-17T03:11:53.492Z,6.10
2022-10-17T03:14:20.122Z,5.50
2022-10-17T03:16:47.120Z,5.80
2022-10-17T03:19:13.722Z,5.20
2022-10-17T03:21:40.351Z,5.68
2022-10-17T03:24:07.497Z,6.55
2022-10-17T03:26:34.146Z,6.10
2022-10-17T03:29:01.002Z,5.65
2022-10-17T03:31:27.570Z,5.13
2022-10-17T03:33:54.170Z,5.88
2022-10-17T03:36:21.192Z,5.88
2022-10-17T03:38:48.307Z,5.20
2022-10-17T03:41:15.267Z,5.32
2022-10-17T03:43:42.195Z,4.35
2022-10-17T03:46:08.882Z,5.75
2022-10-17T03:48:35.698Z,6.50
2022-10-17T03:51:08.382Z,6.28
2022-10-17T03:53:35.655Z,8.40
2022-10-17T03:56:17.519Z,7.72
2022-10-17T03:58:44.846Z,7.57
2022-10-17T04:01:13.995Z,8.50
2022-10-17T04:03:41.688Z,8.57
2022-10-17T04:06:10.979Z,8.18
2022-10-17T04:08:37.575Z,7.57
2022-10-17T04:11:07.486Z,7.95
2022-10-17T04:13:34.762Z,7.97
2022-10-17T04:16:04.777Z,7.70
2022-10-17T04:18:31.691Z,7.63
2022-10-17T04:20:58.309Z,7.40
2022-10-17T04:23:26.515Z,7.50
2022-10-17T04:25:59.361Z,7.38
2022-10-17T04:28:27.206Z,8.25
2022-10-17T04:31:02.438Z,8.07
2022-10-17T04:33:29.732Z,8.00
2022-10-17T04:35:59.657Z,8.43
2022-10-17T04:38:28.599Z,8.40
2022-10-17T04:40:58.262Z,8.60
2022-10-17T04:43:24.882Z,8.43
2022-10-17T04:45:51.547Z,8.07
2022-10-17T04:48:18.082Z,9.05
2022-10-17T04:51:00.000Z,8.48
2022-10-17T04:53:27.378Z,7.00
2022-10-17T04:55:54.581Z,9.52
2022-10-17T04:58:22.364Z,8.45
2022-10-17T05:00:49.364Z,8.38
2022-10-17T05:03:16.326Z,8.95
2022-10-17T05:05:43.287Z,7.93
2022-10-17T05:08:11.172Z,8.07
2022-10-17T05:10:39.472Z,8.77
2022-10-17T05:13:06.568Z,8.07
2022-10-17T05:15:33.525Z,8.00
2022-10-17T05:18:00.191Z,7.57
2022-10-17T05:20:27.654Z,7.32
2022-10-17T05:22:54.615Z,8.60
2022-10-17T05:25:21.935Z,9.00
2022-10-17T05:27:48.538Z,9.63
2022-10-17T05:30:15.134Z,8.05
2022-10-17T05:32:41.966Z,10.32
2022-10-17T05:35:08.679Z,9.45
2022-10-17T05:37:35.414Z,10.52
2022-10-17T05:40:02.223Z,10.90
2022-10-17T05:42:29.130Z,12.18
2022-10-17T05:44:56.018Z,11.23
2022-10-17T05:47:22.597Z,10.77
2022-10-17T05:49:52.216Z,11.00
2022-10-17T05:52:19.290Z,11.30
2022-10-17T05:54:46.016Z,11.27
2022-10-17T05:57:12.799Z,10.75
2022-10-17T05:59:39.412Z,10.93
2022-10-17T06:02:06.681Z,10.07
2022-10-17T06:04:33.574Z,10.02
2022-10-17T06:07:00.204Z,10.23
2022-10-17T06:09:27.021Z,10.50
2022-10-17T06:11:53.614Z,10.02
2022-10-17T06:14:20.395Z,10.38
2022-10-17T06:16:46.990Z,11.85
2022-10-17T06:19:13.585Z,10.82
2022-10-17T06:21:40.222Z,11.15
2022-10-17T06:24:06.805Z,11.35
2022-10-17T06:26:33.398Z,12.15
2022-10-17T06:29:00.028Z,12.63
2022-10-17T06:31:26.705Z,12.55
2022-10-17T06:33:53.315Z,12.98
2022-10-17T06:36:20.075Z,12.18
2022-10-17T06:38:47.018Z,13.52
2022-10-17T06:41:18.561Z,13.07
2022-10-17T06:43:46.744Z,15.07
2022-10-17T06:46:18.337Z,14.35
2022-10-17T06:48:45.559Z,14.13
2022-10-17T06:51:12.406Z,12.40
2022-10-17T06:53:40.420Z,12.45
2022-10-17T06:56:08.739Z,12.43
2022-10-17T06:58:39.099Z,15.07
2022-10-17T07:01:11.699Z,13.63
2022-10-17T07:03:39.618Z,15.20
2022-10-17T07:06:06.796Z,14.20
2022-10-17T07:08:33.386Z,15.57
2022-10-17T07:11:08.366Z,16.70
2022-10-17T07:13:38.923Z,15.45
2022-10-17T07:16:06.825Z,15.88
2022-10-17T07:18:33.823Z,16.92
2022-10-17T07:21:00.639Z,13.73
2022-10-17T07:23:27.723Z,15.13
2022-10-17T07:26:00.484Z,16.50
2022-10-17T07:28:28.097Z,15.43
2022-10-17T07:30:55.217Z,16.13
2022-10-17T07:33:21.893Z,16.65
2022-10-17T07:35:48.546Z,16.98
2022-10-17T07:38:15.134Z,17.42
2022-10-17T07:40:41.776Z,20.67
2022-10-17T07:43:08.360Z,20.02
2022-10-17T07:45:34.930Z,20.02
2022-10-17T07:48:01.780Z,19.50
2022-10-17T07:50:29.198Z,19.33
2022-10-17T07:52:55.790Z,20.90
2022-10-17T07:55:22.414Z,20.08
2022-10-17T07:57:49.122Z,25.15
2022-10-17T08:00:15.885Z,28.00
2022-10-17T08:02:42.509Z,26.65
2022-10-17T08:05:09.413Z,28.20
2022-10-17T08:07:35.992Z,28.33
2022-10-17T08:10:02.941Z,29.67
2022-10-17T08:12:32.628Z,33.47
2022-10-17T08:14:59.714Z,32.33
2022-10-17T08:17:26.521Z,32.58
2022-10-17T08:19:53.117Z,31.95
2022-10-17T08:22:19.745Z,31.10
2022-10-17T08:24:46.653Z,30.42
2022-10-17T08:27:13.808Z,30.85
2022-10-17T08:29:40.897Z,29.10
2022-10-17T08:32:10.003Z,31.25
2022-10-17T08:34:36.831Z,31.55
2022-10-17T08:37:03.544Z,31.02
2022-10-17T08:39:30.202Z,32.63
2022-10-17T08:42:11.051Z,34.00
2022-10-17T08:45:21.001Z,32.03
2022-10-17T08:47:56.614Z,31.77
2022-10-17T08:50:55.111Z,28.85
2022-10-17T08:53:29.488Z,30.38
2022-10-17T08:55:56.702Z,30.00
2022-10-17T08:58:27.976Z,30.77
2022-10-17T09:01:13.744Z,30.77
2022-10-17T09:04:22.116Z,28.33
2022-10-17T09:07:27.978Z,29.90
2022-10-17T09:10:09.478Z,29.58
2022-10-17T09:13:05.415Z,30.42
2022-10-17T09:15:56.970Z,30.42
2022-10-17T09:18:36.525Z,27.23
2022-10-17T09:21:50.016Z,30.48
2022-10-17T09:24:25.285Z,28.02
2022-10-17T09:26:54.639Z,29.08
2022-10-17T09:29:28.641Z,27.45
2022-10-17T09:32:11.296Z,29.83
2022-10-17T09:34:38.091Z,27.05
2022-10-17T09:37:14.298Z,26.80
2022-10-17T09:39:42.286Z,29.92
2022-10-17T09:42:14.675Z,26.45
2022-10-17T09:47:39.242Z,27.55
2022-10-17T09:50:15.660Z,30.63
2022-10-17T09:52:48.899Z,29.58
2022-10-17T09:55:34.100Z,28.90
2022-10-17T09:58:06.235Z,28.00
2022-10-17T10:00:36.849Z,27.27
2022-10-17T10:03:35.681Z,27.88
2022-10-17T10:06:13.083Z,29.20
2022-10-17T10:09:30.372Z,27.88
2022-10-17T10:11:59.105Z,30.42
2022-10-17T10:14:35.495Z,30.42
2022-10-17T10:17:04.482Z,28.50
2022-10-17T10:19:37.833Z,27.35
2022-10-17T10:22:16.630Z,26.40
2022-10-17T10:24:43.506Z,27.60
2022-10-17T10:27:18.707Z,26.25
2022-10-17T10:29:52.807Z,27.73
2022-10-17T10:32:27.306Z,28.90
2022-10-17T10:35:01.160Z,30.45
2022-10-17T10:37:33.974Z,27.63
2022-10-17T10:40:18.603Z,29.52
2022-10-17T10:42:51.340Z,26.88
2022-10-17T10:45:48.019Z,27.20
2022-10-17T10:48:24.144Z,25.88
2022-10-17T10:51:14.305Z,26.70
2022-10-17T10:54:21.349Z,26.00
2022-10-17T10:56:53.504Z,25.75
2022-10-17T11:02:30.790Z,31.52
2022-10-17T11:04:57.349Z,26.13
2022-10-17T11:07:56.218Z,23.80
2022-10-17T11:10:32.992Z,25.10
2022-10-17T11:13:22.913Z,24.17
2022-10-17T11:16:12.525Z,23.55
2022-10-17T11:18:47.747Z,23.08
2022-10-17T11:21:25.566Z,24.45
2022-10-17T11:24:27.799Z,24.40
2022-10-17T11:27:00.013Z,26.10
2022-10-17T11:29:36.243Z,25.33
2022-10-17T11:32:15.546Z,26.15
2022-10-17T11:34:49.910Z,26.75
2022-10-17T11:37:21.953Z,26.13
2022-10-17T11:40:00.612Z,24.60
2022-10-17T11:42:41.419Z,22.98
2022-10-17T11:45:13.971Z,24.35
2022-10-17T11:48:12.487Z,25.33
2022-10-17T11:53:41.751Z,23.88
2022-10-17T11:56:11.503Z,26.13
2022-10-17T11:59:16.580Z,24.05
2022-10-17T12:01:57.838Z,25.35
2022-10-17T12:05:02.339Z,25.60
2022-10-17T12:07:55.448Z,24.40
2022-10-17T12:10:31.489Z,26.02
2022-10-17T12:13:18.187Z,24.52
2022-10-17T12:15:46.614Z,27.23
2022-10-17T12:18:17.413Z,25.80
2022-10-17T12:20:57.922Z,25.88
2022-10-17T12:23:32.329Z,25.73
2022-10-17T12:26:05.532Z,24.42
2022-10-17T12:28:42.494Z,28.00
2022-10-17T12:31:23.138Z,26.00
2022-10-17T12:33:52.636Z,27.98
2022-10-17T12:36:39.529Z,28.50
2022-10-17T12:39:46.763Z,26.88
2022-10-17T12:42:43.366Z,28.17
2022-10-17T12:45:51.443Z,27.85
2022-10-17T12:49:01.181Z,27.40
2022-10-17T12:51:37.882Z,26.02
2022-10-17T12:54:17.190Z,26.60
2022-10-17T12:56:46.799Z,24.58
2022-10-17T12:59:20.080Z,27.45
2022-10-17T13:01:50.888Z,25.65
2022-10-17T13:04:18.561Z,26.50
2022-10-17T13:06:48.208Z,23.70
2022-10-17T13:09:37.849Z,25.92
2022-10-17T13:12:12.173Z,25.23
2022-10-17T13:14:42.372Z,25.08
2022-10-17T13:17:43.820Z,25.27
2022-10-17T13:20:25.657Z,26.60
2022-10-17T13:22:57.315Z,26.25
2022-10-17T13:25:25.878Z,28.00
2022-10-17T13:28:04.918Z,26.95
2022-10-17T13:30:36.769Z,29.67
2022-10-17T13:33:14.735Z,27.30
2022-10-17T13:35:59.433Z,28.33
2022-10-17T13:38:32.430Z,29.65
2022-10-17T13:41:16.551Z,27.88
2022-10-17T13:43:47.112Z,28.75
2022-10-17T13:46:37.293Z,30.27
2022-10-17T13:49:13.009Z,31.08
2022-10-17T13:51:44.933Z,31.35
2022-10-17T13:54:40.358Z,28.67
2022-10-17T13:57:19.708Z,30.88
2022-10-17T13:59:50.340Z,30.25
2022-10-17T14:02:27.671Z,30.38
2022-10-17T14:05:24.926Z,31.88
2022-10-17T14:08:15.228Z,31.13
2022-10-17T14:10:44.753Z,32.58
2022-10-17T14:13:23.692Z,31.60
2022-10-17T14:15:51.255Z,31.33
2022-10-17T14:18:22.038Z,32.63
2022-10-17T14:21:34.003Z,32.50
2022-10-17T14:23:43.980Z,33.42
2022-10-17T14:26:22.133Z,35.70
2022-10-17T14:29:07.082Z,34.85
2022-10-17T14:31:35.908Z,34.30
2022-10-17T14:34:04.733Z,34.88
2022-10-17T14:36:44.293Z,33.72
2022-10-17T14:39:20.745Z,37.15
2022-10-17T14:41:48.370Z,33.90
2022-10-17T14:44:23.978Z,34.78
2022-10-17T14:46:59.279Z,34.58
2022-10-17T14:49:35.768Z,34.85
2022-10-17T14:52:39.019Z,36.38
2022-10-17T14:55:25.081Z,34.97
2022-10-17T14:57:51.859Z,35.63
2022-10-17T15:00:20.713Z,33.17
2022-10-17T15:02:48.306Z,33.80
2022-10-17T15:05:15.694Z,34.53
2022-10-17T15:07:42.822Z,33.45
2022-10-17T15:10:36.871Z,36.78
2022-10-17T15:13:26.561Z,35.58
2022-10-17T15:15:52.232Z,35.90
2022-10-17T15:18:19.397Z,34.90
2022-10-17T15:20:46.231Z,34.88
2022-10-17T15:23:12.878Z,33.13
2022-10-17T15:25:39.847Z,35.92
2022-10-17T15:28:06.452Z,35.80
2022-10-17T15:30:36.425Z,34.67
2022-10-17T15:33:03.565Z,35.92
2022-10-17T15:35:31.155Z,35.15
2022-10-17T15:37:57.820Z,36.65
2022-10-17T15:40:28.770Z,34.50
2022-10-17T15:42:56.381Z,35.05
2022-10-17T15:45:23.663Z,33.03
2022-10-17T15:47:53.303Z,35.72
2022-10-17T15:50:21.586Z,37.97
2022-10-17T15:52:51.079Z,35.95
2022-10-17T15:55:18.785Z,36.20
2022-10-17T15:57:47.276Z,38.40
2022-10-17T16:00:22.409Z,36.85
2022-10-17T16:02:49.992Z,37.55
2022-10-17T16:05:19.744Z,38.15
2022-10-17T16:07:46.848Z,36.13
2022-10-17T16:10:14.716Z,37.30
2022-10-17T16:12:41.386Z,36.92
2022-10-17T16:15:14.783Z,36.53
2022-10-17T16:17:41.518Z,38.80
2022-10-17T16:20:08.697Z,40.28
2022-10-17T16:22:38.073Z,37.95
2022-10-17T16:25:11.995Z,39.10
2022-10-17T16:27:39.338Z,40.08
2022-10-17T16:30:07.702Z,36.92
2022-10-17T16:32:34.376Z,37.75
2022-10-17T16:35:01.542Z,36.33
2022-10-17T16:37:28.346Z,36.40
2022-10-17T16:39:54.961Z,33.65
2022-10-17T16:42:21.903Z,35.30
2022-10-17T16:44:49.673Z,33.13
2022-10-17T16:47:17.932Z,32.50
2022-10-17T16:49:45.550Z,33.83
2022-10-17T16:52:12.938Z,33.63
2022-10-17T16:54:39.513Z,33.88
2022-10-17T16:57:06.218Z,35.55
2022-10-17T16:59:32.783Z,34.75
2022-10-17T17:01:59.408Z,33.17
2022-10-17T17:04:26.310Z,33.28
2022-10-17T17:06:52.956Z,32.45
2022-10-17T17:09:19.725Z,31.50
2022-10-17T17:11:46.367Z,33.05
2022-10-17T17:14:13.501Z,32.17
2022-10-17T17:16:40.332Z,31.27
2022-10-17T17:19:10.715Z,32.08
2022-10-17T17:21:52.881Z,31.50
2022-10-17T17:24:24.094Z,31.17
2022-10-17T17:26:55.199Z,29.88
2022-10-17T17:29:22.562Z,29.65
2022-10-17T17:31:49.853Z,30.77
2022-10-17T17:34:18.244Z,30.85
2022-10-17T17:36:45.368Z,30.52
2022-10-17T17:39:14.203Z,29.23
2022-10-17T17:41:42.166Z,28.73
2022-10-17T17:44:12.537Z,30.33
2022-10-17T17:46:43.632Z,30.80
2022-10-17T17:49:11.654Z,30.45
2022-10-17T17:51:38.822Z,29.77
2022-10-17T17:54:05.468Z,31.50
2022-10-17T17:56:32.347Z,30.10
2022-10-17T17:59:01.835Z,30.23
2022-10-17T18:01:31.403Z,33.17
2022-10-17T18:03:59.110Z,32.40
2022-10-17T18:06:26.772Z,35.65
2022-10-17T18:08:56.276Z,37.92
2022-10-17T18:11:22.866Z,41.17
2022-10-17T18:13:58.245Z,42.83
2022-10-17T18:16:26.443Z,40.53
2022-10-17T18:18:53.513Z,40.22
2022-10-17T18:21:20.486Z,38.95
2022-10-17T18:23:48.530Z,36.30
2022-10-17T18:26:15.692Z,34.85
2022-10-17T18:28:43.676Z,31.83
2022-10-17T18:31:13.117Z,31.98
2022-10-17T18:33:39.945Z,31.42
2022-10-17T18:36:10.103Z,30.17
2022-10-17T18:38:37.342Z,30.05
2022-10-17T18:41:16.701Z,29.27
2022-10-17T18:43:45.405Z,29.77
2022-10-17T18:46:17.329Z,27.13
2022-10-17T18:48:45.491Z,26.52
2022-10-17T18:51:13.843Z,27.92
2022-10-17T18:53:44.833Z,27.90
2022-10-17T18:56:12.541Z,28.35
2022-10-17T18:58:40.118Z,30.48
2022-10-17T19:01:16.016Z,27.40
2022-10-17T19:03:44.184Z,31.05
2022-10-17T19:06:12.663Z,27.48
2022-10-17T19:08:40.124Z,27.88
2022-10-17T19:11:18.747Z,28.42
2022-10-17T19:16:24.130Z,27.70
2022-10-17T19:18:52.813Z,27.30
2022-10-17T19:21:21.949Z,26.13
2022-10-17T19:24:00.150Z,27.73
2022-10-17T19:26:28.609Z,26.48
2022-10-17T19:28:55.591Z,24.55
2022-10-17T19:31:27.027Z,25.23
2022-10-17T19:33:55.526Z,25.40
2022-10-17T19:36:27.515Z,27.17
2022-10-17T19:38:57.906Z,24.77
2022-10-17T19:41:24.735Z,27.38
2022-10-17T19:43:54.237Z,26.98
2022-10-17T19:46:23.710Z,28.25
2022-10-17T19:48:51.023Z,26.42
2022-10-17T19:51:20.261Z,28.45
2022-10-17T19:53:47.728Z,27.73
2022-10-17T19:56:14.360Z,29.00
2022-10-17T19:58:45.334Z,26.80
2022-10-17T20:01:19.556Z,25.92
2022-10-17T20:03:46.867Z,28.10
2022-10-17T20:06:14.081Z,25.08
2022-10-17T20:08:41.230Z,25.35
2022-10-17T20:11:15.135Z,26.20
2022-10-17T20:13:42.302Z,25.75
2022-10-17T20:16:13.142Z,24.77
2022-10-17T20:18:40.868Z,24.80
2022-10-17T20:21:11.992Z,26.73
2022-10-17T20:23:38.967Z,26.70
2022-10-17T20:26:33.170Z,26.08
2022-10-17T20:28:55.845Z,24.38
2022-10-17T20:31:22.551Z,23.98
2022-10-17T20:33:54.585Z,22.13
2022-10-17T20:36:23.403Z,22.67
2022-10-17T20:38:54.986Z,21.00
2022-10-17T20:41:22.139Z,20.77
2022-10-17T20:43:51.742Z,20.90
2022-10-17T20:46:35.025Z,21.92
2022-10-17T20:49:02.593Z,20.60
2022-10-17T20:51:29.771Z,19.48
2022-10-17T20:56:30.161Z,19.00
2022-10-17T20:59:02.596Z,19.48
2022-10-17T21:03:59.677Z,18.05
2022-10-17T21:06:29.221Z,16.92
2022-10-17T21:08:56.985Z,17.10
2022-10-17T21:11:27.581Z,17.20
2022-10-17T21:13:59.703Z,17.73
2022-10-17T21:16:27.703Z,17.75
2022-10-17T21:18:55.368Z,16.75
2022-10-17T21:21:43.295Z,17.73
2022-10-17T21:24:14.183Z,18.95
2022-10-17T21:26:42.432Z,17.80
2022-10-17T21:29:09.990Z,17.98
2022-10-17T21:31:38.826Z,17.90
2022-10-17T21:34:11.659Z,19.38
2022-10-17T21:36:38.707Z,18.73
2022-10-17T21:39:05.551Z,20.02
2022-10-17T21:41:32.520Z,18.65
2022-10-17T21:44:05.392Z,19.20
2022-10-17T21:46:32.809Z,21.17
2022-10-17T21:49:00.708Z,18.33
2022-10-17T21:51:27.853Z,19.88
2022-10-17T21:53:56.005Z,19.40
2022-10-17T21:56:30.664Z,19.85
2022-10-17T21:58:58.274Z,18.02
2022-10-17T22:01:31.795Z,18.25
2022-10-17T22:04:01.308Z,19.40
2022-10-17T22:06:39.863Z,17.35
2022-10-17T22:09:13.346Z,17.90
2022-10-17T22:11:40.839Z,16.40
2022-10-17T22:14:11.266Z,17.33
2022-10-17T22:16:38.533Z,16.80
2022-10-17T22:19:06.787Z,17.20
2022-10-17T22:21:35.329Z,17.23
2022-10-17T22:24:04.857Z,17.42
2022-10-17T22:26:33.247Z,15.30
2022-10-17T22:28:59.979Z,17.00
2022-10-17T22:31:26.711Z,14.68
2022-10-17T22:33:53.489Z,14.70
2022-10-17T22:36:20.277Z,15.57
2022-10-17T22:38:47.038Z,14.88
2022-10-17T22:41:13.637Z,15.57
2022-10-17T22:43:40.227Z,13.85
2022-10-17T22:46:07.505Z,14.45
2022-10-17T22:48:34.531Z,15.55
2022-10-17T22:51:02.125Z,15.55
2022-10-17T22:53:29.862Z,14.73
2022-10-17T22:56:01.408Z,14.23
2022-10-17T22:58:29.951Z,13.40
2022-10-17T23:00:57.220Z,13.88
2022-10-17T23:03:26.585Z,12.80
2022-10-17T23:05:53.909Z,13.95
2022-10-17T23:08:21.038Z,13.10
2022-10-17T23:10:48.299Z,14.88
2022-10-17T23:13:16.023Z,15.18
2022-10-17T23:15:43.314Z,14.52
2022-10-17T23:18:10.242Z,15.98
2022-10-17T23:20:37.728Z,13.60
2022-10-17T23:23:04.762Z,14.20
2022-10-17T23:25:34.375Z,12.93
2022-10-17T23:28:01.567Z,13.73
2022-10-17T23:30:28.551Z,14.15
2022-10-17T23:32:55.116Z,12.52
2022-10-17T23:35:21.911Z,13.02
2022-10-17T23:37:48.772Z,13.25
2022-10-17T23:40:15.534Z,12.90
2022-10-17T23:42:42.127Z,13.65
2022-10-17T23:45:09.572Z,12.30
2022-10-17T23:47:36.384Z,12.52
2022-10-17T23:50:04.042Z,12.50
2022-10-17T23:52:30.889Z,12.07
2022-10-17T23:54:57.457Z,12.50
2022-10-17T23:57:24.031Z,12.70
2022-10-17T23:59:50.849Z,12.82
